sensor_id;sensor_type;location;lat;lon;timestamp;temperature;humidity
5041;DHT22;2539;52.568;13.364;2024-01-30T00:01:27;4.20;99.90
5041;DHT22;2539;52.568;13.364;2024-01-30T00:03:53;4.10;99.90
5041;DHT22;2539;52.568;13.364;2024-01-30T00:06:20;4.10;99.90
5041;DHT22;2539;52.568;13.364;2024-01-30T00:08:49;4.10;99.90
5041;DHT22;2539;52.568;13.364;2024-01-30T00:11:16;4.10;99.90
5041;DHT22;2539;52.568;13.364;2024-01-30T00:13:42;4.10;99.90
5041;DHT22;2539;52.568;13.364;2024-01-30T00:16:08;4.10;99.90
5041;DHT22;2539;52.568;13.364;2024-01-30T00:18:36;4.00;99.90
5041;DHT22;2539;52.568;13.364;2024-01-30T00:21:02;4.00;99.90
5041;DHT22;2539;52.568;13.364;2024-01-30T00:23:29;4.00;99.90
5041;DHT22;2539;52.568;13.364;2024-01-30T00:25:55;4.00;99.90
5041;DHT22;2539;52.568;13.364;2024-01-30T00:28:21;3.90;99.90
5041;DHT22;2539;52.568;13.364;2024-01-30T00:30:48;3.90;99.90
5041;DHT22;2539;52.568;13.364;2024-01-30T00:33:14;3.80;99.90
5041;DHT22;2539;52.568;13.364;2024-01-30T00:35:40;3.80;99.90
5041;DHT22;2539;52.568;13.364;2024-01-30T00:38:06;3.80;99.90
5041;DHT22;2539;52.568;13.364;2024-01-30T00:40:33;3.80;99.90
5041;DHT22;2539;52.568;13.364;2024-01-30T00:42:58;3.80;99.90
5041;DHT22;2539;52.568;13.364;2024-01-30T00:45:25;3.80;99.90
5041;DHT22;2539;52.568;13.364;2024-01-30T00:47:51;3.70;99.90
5041;DHT22;2539;52.568;13.364;2024-01-30T00:50:17;3.70;99.90
5041;DHT22;2539;52.568;13.364;2024-01-30T00:52:43;3.70;99.90
5041;DHT22;2539;52.568;13.364;2024-01-30T00:55:11;3.70;99.90
5041;DHT22;2539;52.568;13.364;2024-01-30T00:57:37;3.70;99.90
5041;DHT22;2539;52.568;13.364;2024-01-30T01:00:04;3.70;99.90
5041;DHT22;2539;52.568;13.364;2024-01-30T01:02:32;3.70;99.90
5041;DHT22;2539;52.568;13.364;2024-01-30T01:04:58;3.80;99.90
5041;DHT22;2539;52.568;13.364;2024-01-30T01:07:25;3.70;99.90
5041;DHT22;2539;52.568;13.364;2024-01-30T01:09:51;3.70;99.90
5041;DHT22;2539;52.568;13.364;2024-01-30T01:12:20;3.80;99.90
5041;DHT22;2539;52.568;13.364;2024-01-30T01:14:47;3.70;99.90
5041;DHT22;2539;52.568;13.364;2024-01-30T01:17:13;3.70;99.90
5041;DHT22;2539;52.568;13.364;2024-01-30T01:19:39;3.70;99.90
5041;DHT22;2539;52.568;13.364;2024-01-30T01:22:07;3.70;99.90
5041;DHT22;2539;52.568;13.364;2024-01-30T01:24:34;3.70;99.90
5041;DHT22;2539;52.568;13.364;2024-01-30T01:27:00;3.70;99.90
5041;DHT22;2539;52.568;13.364;2024-01-30T01:29:26;3.70;99.90
5041;DHT22;2539;52.568;13.364;2024-01-30T01:32:00;3.60;99.90
5041;DHT22;2539;52.568;13.364;2024-01-30T01:34:26;3.60;99.90
5041;DHT22;2539;52.568;13.364;2024-01-30T01:36:52;3.50;99.90
5041;DHT22;2539;52.568;13.364;2024-01-30T01:39:22;3.50;99.90
5041;DHT22;2539;52.568;13.364;2024-01-30T01:41:49;3.50;99.90
5041;DHT22;2539;52.568;13.364;2024-01-30T01:44:17;3.40;99.90
5041;DHT22;2539;52.568;13.364;2024-01-30T01:46:51;3.40;99.90
5041;DHT22;2539;52.568;13.364;2024-01-30T01:49:18;3.40;99.90
5041;DHT22;2539;52.568;13.364;2024-01-30T01:51:47;3.40;99.90
5041;DHT22;2539;52.568;13.364;2024-01-30T01:54:14;3.40;99.90
5041;DHT22;2539;52.568;13.364;2024-01-30T01:56:42;3.40;99.90
5041;DHT22;2539;52.568;13.364;2024-01-30T01:59:09;3.40;99.90
5041;DHT22;2539;52.568;13.364;2024-01-30T02:01:39;3.40;99.90
5041;DHT22;2539;52.568;13.364;2024-01-30T02:04:07;3.40;99.90
5041;DHT22;2539;52.568;13.364;2024-01-30T02:06:34;3.40;99.90
5041;DHT22;2539;52.568;13.364;2024-01-30T02:09:01;3.40;99.90
5041;DHT22;2539;52.568;13.364;2024-01-30T02:11:38;3.40;99.90
5041;DHT22;2539;52.568;13.364;2024-01-30T02:14:05;3.40;99.90
5041;DHT22;2539;52.568;13.364;2024-01-30T02:16:32;3.40;99.90
5041;DHT22;2539;52.568;13.364;2024-01-30T02:18:58;3.50;99.90
5041;DHT22;2539;52.568;13.364;2024-01-30T02:21:24;3.50;99.90
5041;DHT22;2539;52.568;13.364;2024-01-30T02:23:52;3.50;99.90
5041;DHT22;2539;52.568;13.364;2024-01-30T02:26:19;3.50;99.90
5041;DHT22;2539;52.568;13.364;2024-01-30T02:28:45;3.60;99.90
5041;DHT22;2539;52.568;13.364;2024-01-30T02:31:11;3.50;99.90
5041;DHT22;2539;52.568;13.364;2024-01-30T02:33:38;3.60;99.90
5041;DHT22;2539;52.568;13.364;2024-01-30T02:36:04;3.60;99.90
5041;DHT22;2539;52.568;13.364;2024-01-30T02:38:31;3.60;99.90
5041;DHT22;2539;52.568;13.364;2024-01-30T02:40:57;3.60;99.90
5041;DHT22;2539;52.568;13.364;2024-01-30T02:43:23;3.60;99.90
5041;DHT22;2539;52.568;13.364;2024-01-30T02:45:49;3.60;99.90
5041;DHT22;2539;52.568;13.364;2024-01-30T02:48:16;3.60;99.90
5041;DHT22;2539;52.568;13.364;2024-01-30T02:50:42;3.50;99.90
5041;DHT22;2539;52.568;13.364;2024-01-30T02:53:08;3.50;99.90
5041;DHT22;2539;52.568;13.364;2024-01-30T02:55:35;3.40;99.90
5041;DHT22;2539;52.568;13.364;2024-01-30T02:58:01;3.40;99.90
5041;DHT22;2539;52.568;13.364;2024-01-30T03:00:27;3.40;99.90
5041;DHT22;2539;52.568;13.364;2024-01-30T03:02:53;3.40;99.90
5041;DHT22;2539;52.568;13.364;2024-01-30T03:05:20;3.40;99.90
5041;DHT22;2539;52.568;13.364;2024-01-30T03:07:46;3.40;99.90
5041;DHT22;2539;52.568;13.364;2024-01-30T03:10:12;3.30;99.90
5041;DHT22;2539;52.568;13.364;2024-01-30T03:12:38;3.30;99.90
5041;DHT22;2539;52.568;13.364;2024-01-30T03:15:05;3.30;99.90
5041;DHT22;2539;52.568;13.364;2024-01-30T03:17:31;3.30;99.90
5041;DHT22;2539;52.568;13.364;2024-01-30T03:19:58;3.30;99.90
5041;DHT22;2539;52.568;13.364;2024-01-30T03:22:24;3.30;99.90
5041;DHT22;2539;52.568;13.364;2024-01-30T03:24:50;3.20;99.90
5041;DHT22;2539;52.568;13.364;2024-01-30T03:27:17;3.20;99.90
5041;DHT22;2539;52.568;13.364;2024-01-30T03:29:43;3.20;99.90
5041;DHT22;2539;52.568;13.364;2024-01-30T03:32:09;3.20;99.90
5041;DHT22;2539;52.568;13.364;2024-01-30T03:37:52;3.20;99.90
5041;DHT22;2539;52.568;13.364;2024-01-30T03:40:18;3.20;99.90
5041;DHT22;2539;52.568;13.364;2024-01-30T03:42:44;3.10;99.90
5041;DHT22;2539;52.568;13.364;2024-01-30T03:45:11;3.10;99.90
5041;DHT22;2539;52.568;13.364;2024-01-30T03:47:37;3.00;99.90
5041;DHT22;2539;52.568;13.364;2024-01-30T03:50:04;3.00;99.90
5041;DHT22;2539;52.568;13.364;2024-01-30T03:52:31;3.10;99.90
5041;DHT22;2539;52.568;13.364;2024-01-30T03:54:57;3.10;99.90
5041;DHT22;2539;52.568;13.364;2024-01-30T03:57:23;3.00;99.90
5041;DHT22;2539;52.568;13.364;2024-01-30T03:59:49;3.10;99.90
5041;DHT22;2539;52.568;13.364;2024-01-30T04:02:14;3.10;99.90
5041;DHT22;2539;52.568;13.364;2024-01-30T04:04:40;3.10;99.90
5041;DHT22;2539;52.568;13.364;2024-01-30T04:07:05;3.00;99.90
5041;DHT22;2539;52.568;13.364;2024-01-30T04:09:32;3.00;99.90
5041;DHT22;2539;52.568;13.364;2024-01-30T04:11:59;3.00;99.90
5041;DHT22;2539;52.568;13.364;2024-01-30T04:14:25;3.00;99.90
5041;DHT22;2539;52.568;13.364;2024-01-30T04:16:51;2.90;99.90
5041;DHT22;2539;52.568;13.364;2024-01-30T04:19:18;2.90;99.90
5041;DHT22;2539;52.568;13.364;2024-01-30T04:21:44;2.90;99.90
5041;DHT22;2539;52.568;13.364;2024-01-30T04:24:10;2.90;99.90
5041;DHT22;2539;52.568;13.364;2024-01-30T04:26:36;2.90;99.90
5041;DHT22;2539;52.568;13.364;2024-01-30T04:29:03;2.90;99.90
5041;DHT22;2539;52.568;13.364;2024-01-30T04:31:36;3.00;99.90
5041;DHT22;2539;52.568;13.364;2024-01-30T04:34:02;3.10;99.90
5041;DHT22;2539;52.568;13.364;2024-01-30T04:36:29;3.10;99.90
5041;DHT22;2539;52.568;13.364;2024-01-30T04:38:55;3.00;99.90
5041;DHT22;2539;52.568;13.364;2024-01-30T04:41:21;3.10;99.90
5041;DHT22;2539;52.568;13.364;2024-01-30T04:43:47;3.10;99.90
5041;DHT22;2539;52.568;13.364;2024-01-30T04:46:14;3.10;99.90
5041;DHT22;2539;52.568;13.364;2024-01-30T04:48:40;3.10;99.90
5041;DHT22;2539;52.568;13.364;2024-01-30T04:51:06;3.10;99.90
5041;DHT22;2539;52.568;13.364;2024-01-30T04:53:32;3.10;99.90
5041;DHT22;2539;52.568;13.364;2024-01-30T04:55:59;3.00;99.90
5041;DHT22;2539;52.568;13.364;2024-01-30T04:58:25;3.10;99.90
5041;DHT22;2539;52.568;13.364;2024-01-30T05:00:51;3.00;99.90
5041;DHT22;2539;52.568;13.364;2024-01-30T05:03:19;3.00;99.90
5041;DHT22;2539;52.568;13.364;2024-01-30T05:05:45;2.90;99.90
5041;DHT22;2539;52.568;13.364;2024-01-30T05:08:11;2.90;99.90
5041;DHT22;2539;52.568;13.364;2024-01-30T05:10:38;2.90;99.90
5041;DHT22;2539;52.568;13.364;2024-01-30T05:13:04;2.90;99.90
5041;DHT22;2539;52.568;13.364;2024-01-30T05:15:30;2.90;99.90
5041;DHT22;2539;52.568;13.364;2024-01-30T05:17:56;2.80;99.90
5041;DHT22;2539;52.568;13.364;2024-01-30T05:20:23;2.80;99.90
5041;DHT22;2539;52.568;13.364;2024-01-30T05:22:49;2.80;99.90
5041;DHT22;2539;52.568;13.364;2024-01-30T05:25:15;2.80;99.90
5041;DHT22;2539;52.568;13.364;2024-01-30T05:27:41;2.90;99.90
5041;DHT22;2539;52.568;13.364;2024-01-30T05:30:08;2.80;99.90
5041;DHT22;2539;52.568;13.364;2024-01-30T05:32:35;2.90;99.90
5041;DHT22;2539;52.568;13.364;2024-01-30T05:35:01;2.90;99.90
5041;DHT22;2539;52.568;13.364;2024-01-30T05:37:28;3.00;99.90
5041;DHT22;2539;52.568;13.364;2024-01-30T05:39:54;3.00;99.90
5041;DHT22;2539;52.568;13.364;2024-01-30T05:42:20;3.00;99.90
5041;DHT22;2539;52.568;13.364;2024-01-30T05:44:46;3.10;99.90
5041;DHT22;2539;52.568;13.364;2024-01-30T05:47:13;3.10;99.90
5041;DHT22;2539;52.568;13.364;2024-01-30T05:49:39;3.10;99.90
5041;DHT22;2539;52.568;13.364;2024-01-30T05:52:05;3.20;99.90
5041;DHT22;2539;52.568;13.364;2024-01-30T05:54:32;3.20;99.90
5041;DHT22;2539;52.568;13.364;2024-01-30T05:56:58;3.20;99.90
5041;DHT22;2539;52.568;13.364;2024-01-30T05:59:24;3.20;99.90
5041;DHT22;2539;52.568;13.364;2024-01-30T06:01:54;3.20;99.90
5041;DHT22;2539;52.568;13.364;2024-01-30T06:04:20;3.20;99.90
5041;DHT22;2539;52.568;13.364;2024-01-30T06:06:46;3.30;99.90
5041;DHT22;2539;52.568;13.364;2024-01-30T06:09:12;3.30;99.90
5041;DHT22;2539;52.568;13.364;2024-01-30T06:11:39;3.30;99.90
5041;DHT22;2539;52.568;13.364;2024-01-30T06:14:05;3.30;99.90
5041;DHT22;2539;52.568;13.364;2024-01-30T06:16:31;3.30;99.90
5041;DHT22;2539;52.568;13.364;2024-01-30T06:18:57;3.30;99.90
5041;DHT22;2539;52.568;13.364;2024-01-30T06:21:24;3.40;99.90
5041;DHT22;2539;52.568;13.364;2024-01-30T06:23:50;3.30;99.90
5041;DHT22;2539;52.568;13.364;2024-01-30T06:26:16;3.30;99.90
5041;DHT22;2539;52.568;13.364;2024-01-30T06:28:43;3.30;99.90
5041;DHT22;2539;52.568;13.364;2024-01-30T06:31:10;3.40;99.90
5041;DHT22;2539;52.568;13.364;2024-01-30T06:33:36;3.40;99.90
5041;DHT22;2539;52.568;13.364;2024-01-30T06:36:03;3.40;99.90
5041;DHT22;2539;52.568;13.364;2024-01-30T06:38:29;3.30;99.90
5041;DHT22;2539;52.568;13.364;2024-01-30T06:40:55;3.30;99.90
5041;DHT22;2539;52.568;13.364;2024-01-30T06:43:22;3.30;99.90
5041;DHT22;2539;52.568;13.364;2024-01-30T06:45:48;3.30;99.90
5041;DHT22;2539;52.568;13.364;2024-01-30T06:48:14;3.30;99.90
5041;DHT22;2539;52.568;13.364;2024-01-30T06:50:41;3.30;99.90
5041;DHT22;2539;52.568;13.364;2024-01-30T06:53:07;3.40;99.90
5041;DHT22;2539;52.568;13.364;2024-01-30T06:55:34;3.40;99.90
5041;DHT22;2539;52.568;13.364;2024-01-30T06:58:00;3.40;99.90
5041;DHT22;2539;52.568;13.364;2024-01-30T07:00:26;3.40;99.90
5041;DHT22;2539;52.568;13.364;2024-01-30T07:02:52;3.50;99.90
5041;DHT22;2539;52.568;13.364;2024-01-30T07:05:19;3.50;99.90
5041;DHT22;2539;52.568;13.364;2024-01-30T07:07:45;3.50;99.90
5041;DHT22;2539;52.568;13.364;2024-01-30T07:10:11;3.50;99.90
5041;DHT22;2539;52.568;13.364;2024-01-30T07:12:38;3.80;99.90
5041;DHT22;2539;52.568;13.364;2024-01-30T07:15:05;3.60;99.90
5041;DHT22;2539;52.568;13.364;2024-01-30T07:17:35;3.60;99.90
5041;DHT22;2539;52.568;13.364;2024-01-30T07:20:01;3.60;99.90
5041;DHT22;2539;52.568;13.364;2024-01-30T07:22:30;3.60;99.90
5041;DHT22;2539;52.568;13.364;2024-01-30T07:24:57;3.70;99.90
5041;DHT22;2539;52.568;13.364;2024-01-30T07:27:23;3.80;99.90
5041;DHT22;2539;52.568;13.364;2024-01-30T07:29:49;3.80;99.90
5041;DHT22;2539;52.568;13.364;2024-01-30T07:32:15;3.80;99.90
5041;DHT22;2539;52.568;13.364;2024-01-30T07:34:42;3.90;99.90
5041;DHT22;2539;52.568;13.364;2024-01-30T07:37:08;3.90;99.90
5041;DHT22;2539;52.568;13.364;2024-01-30T07:39:35;4.00;99.90
5041;DHT22;2539;52.568;13.364;2024-01-30T07:42:01;4.10;99.90
5041;DHT22;2539;52.568;13.364;2024-01-30T07:44:28;4.20;99.90
5041;DHT22;2539;52.568;13.364;2024-01-30T07:46:54;4.20;99.90
5041;DHT22;2539;52.568;13.364;2024-01-30T07:49:21;4.20;99.90
5041;DHT22;2539;52.568;13.364;2024-01-30T07:51:47;4.30;99.90
5041;DHT22;2539;52.568;13.364;2024-01-30T07:54:13;4.40;99.90
5041;DHT22;2539;52.568;13.364;2024-01-30T07:56:43;4.40;99.90
5041;DHT22;2539;52.568;13.364;2024-01-30T07:59:10;4.40;99.90
5041;DHT22;2539;52.568;13.364;2024-01-30T08:01:38;4.50;99.90
5041;DHT22;2539;52.568;13.364;2024-01-30T08:04:04;4.60;99.90
5041;DHT22;2539;52.568;13.364;2024-01-30T08:06:30;4.60;99.90
5041;DHT22;2539;52.568;13.364;2024-01-30T08:08:57;4.60;99.90
5041;DHT22;2539;52.568;13.364;2024-01-30T08:11:27;4.60;99.90
5041;DHT22;2539;52.568;13.364;2024-01-30T08:13:55;4.60;99.90
5041;DHT22;2539;52.568;13.364;2024-01-30T08:16:22;4.60;99.90
5041;DHT22;2539;52.568;13.364;2024-01-30T08:18:48;4.70;99.90
5041;DHT22;2539;52.568;13.364;2024-01-30T08:21:14;4.70;99.90
5041;DHT22;2539;52.568;13.364;2024-01-30T08:23:40;4.70;99.90
5041;DHT22;2539;52.568;13.364;2024-01-30T08:26:07;4.80;99.90
5041;DHT22;2539;52.568;13.364;2024-01-30T08:28:33;4.80;99.90
5041;DHT22;2539;52.568;13.364;2024-01-30T08:30:59;4.80;99.90
5041;DHT22;2539;52.568;13.364;2024-01-30T08:33:26;4.90;99.90
5041;DHT22;2539;52.568;13.364;2024-01-30T08:35:52;4.90;99.90
5041;DHT22;2539;52.568;13.364;2024-01-30T08:38:19;4.90;99.90
5041;DHT22;2539;52.568;13.364;2024-01-30T08:40:45;4.90;99.90
5041;DHT22;2539;52.568;13.364;2024-01-30T08:43:11;5.00;99.90
5041;DHT22;2539;52.568;13.364;2024-01-30T08:45:38;5.00;99.90
5041;DHT22;2539;52.568;13.364;2024-01-30T08:48:05;5.10;99.90
5041;DHT22;2539;52.568;13.364;2024-01-30T08:50:31;5.10;99.90
5041;DHT22;2539;52.568;13.364;2024-01-30T08:52:57;5.20;99.90
5041;DHT22;2539;52.568;13.364;2024-01-30T08:55:24;5.30;99.90
5041;DHT22;2539;52.568;13.364;2024-01-30T08:57:50;5.30;99.90
5041;DHT22;2539;52.568;13.364;2024-01-30T09:00:18;5.50;99.90
5041;DHT22;2539;52.568;13.364;2024-01-30T09:02:44;5.60;99.90
5041;DHT22;2539;52.568;13.364;2024-01-30T09:05:10;5.60;99.90
5041;DHT22;2539;52.568;13.364;2024-01-30T09:07:36;5.70;99.90
5041;DHT22;2539;52.568;13.364;2024-01-30T09:10:03;5.70;99.90
5041;DHT22;2539;52.568;13.364;2024-01-30T09:12:29;5.80;99.90
5041;DHT22;2539;52.568;13.364;2024-01-30T09:14:56;5.90;99.90
5041;DHT22;2539;52.568;13.364;2024-01-30T09:17:22;5.90;99.90
5041;DHT22;2539;52.568;13.364;2024-01-30T09:19:48;6.00;99.90
5041;DHT22;2539;52.568;13.364;2024-01-30T09:22:14;6.00;99.90
5041;DHT22;2539;52.568;13.364;2024-01-30T09:24:41;6.00;99.90
5041;DHT22;2539;52.568;13.364;2024-01-30T09:27:07;6.10;99.90
5041;DHT22;2539;52.568;13.364;2024-01-30T09:29:33;6.10;99.90
5041;DHT22;2539;52.568;13.364;2024-01-30T09:32:03;6.20;99.90
5041;DHT22;2539;52.568;13.364;2024-01-30T09:34:30;6.30;99.90
5041;DHT22;2539;52.568;13.364;2024-01-30T09:36:55;6.50;99.90
5041;DHT22;2539;52.568;13.364;2024-01-30T09:39:21;6.50;99.90
5041;DHT22;2539;52.568;13.364;2024-01-30T09:44:20;6.50;99.90
5041;DHT22;2539;52.568;13.364;2024-01-30T09:46:48;6.60;99.90
5041;DHT22;2539;52.568;13.364;2024-01-30T09:49:16;6.70;99.90
5041;DHT22;2539;52.568;13.364;2024-01-30T09:51:52;6.80;99.90
5041;DHT22;2539;52.568;13.364;2024-01-30T09:54:19;6.90;99.90
5041;DHT22;2539;52.568;13.364;2024-01-30T09:56:55;7.00;99.90
5041;DHT22;2539;52.568;13.364;2024-01-30T09:59:22;7.10;99.90
5041;DHT22;2539;52.568;13.364;2024-01-30T10:01:53;7.00;99.90
5041;DHT22;2539;52.568;13.364;2024-01-30T10:04:19;7.10;99.90
5041;DHT22;2539;52.568;13.364;2024-01-30T10:06:46;8.50;99.90
5041;DHT22;2539;52.568;13.364;2024-01-30T10:09:12;7.10;99.90
5041;DHT22;2539;52.568;13.364;2024-01-30T10:11:41;7.10;99.90
5041;DHT22;2539;52.568;13.364;2024-01-30T10:14:07;7.20;99.90
5041;DHT22;2539;52.568;13.364;2024-01-30T10:16:34;7.30;99.90
5041;DHT22;2539;52.568;13.364;2024-01-30T10:19:00;7.30;99.90
5041;DHT22;2539;52.568;13.364;2024-01-30T10:21:31;7.30;99.90
5041;DHT22;2539;52.568;13.364;2024-01-30T10:23:56;7.40;99.90
5041;DHT22;2539;52.568;13.364;2024-01-30T10:26:22;7.40;99.90
5041;DHT22;2539;52.568;13.364;2024-01-30T10:28:49;7.40;99.90
5041;DHT22;2539;52.568;13.364;2024-01-30T10:31:17;7.40;99.90
5041;DHT22;2539;52.568;13.364;2024-01-30T10:33:44;7.40;99.90
5041;DHT22;2539;52.568;13.364;2024-01-30T10:36:13;7.40;99.90
5041;DHT22;2539;52.568;13.364;2024-01-30T10:38:42;7.40;99.90
5041;DHT22;2539;52.568;13.364;2024-01-30T10:41:08;7.40;99.90
5041;DHT22;2539;52.568;13.364;2024-01-30T10:43:50;7.60;99.90
5041;DHT22;2539;52.568;13.364;2024-01-30T10:46:20;7.50;99.90
5041;DHT22;2539;52.568;13.364;2024-01-30T10:48:58;7.50;99.90
5041;DHT22;2539;52.568;13.364;2024-01-30T10:51:38;7.50;99.90
5041;DHT22;2539;52.568;13.364;2024-01-30T10:54:06;7.60;99.90
5041;DHT22;2539;52.568;13.364;2024-01-30T10:56:33;7.60;99.90
5041;DHT22;2539;52.568;13.364;2024-01-30T17:08:12;7.70;99.90
5041;DHT22;2539;52.568;13.364;2024-01-30T17:10:38;7.70;99.90
5041;DHT22;2539;52.568;13.364;2024-01-30T17:13:05;7.70;99.90
5041;DHT22;2539;52.568;13.364;2024-01-30T17:15:31;7.70;99.90
5041;DHT22;2539;52.568;13.364;2024-01-30T17:18:00;7.70;99.90
5041;DHT22;2539;52.568;13.364;2024-01-30T17:20:26;7.70;99.90
5041;DHT22;2539;52.568;13.364;2024-01-30T17:22:53;7.70;99.90
5041;DHT22;2539;52.568;13.364;2024-01-30T17:25:19;7.70;99.90
5041;DHT22;2539;52.568;13.364;2024-01-30T17:27:45;7.70;99.90
5041;DHT22;2539;52.568;13.364;2024-01-30T17:30:21;7.70;99.90
5041;DHT22;2539;52.568;13.364;2024-01-30T17:32:48;7.70;99.90
5041;DHT22;2539;52.568;13.364;2024-01-30T17:35:14;7.70;99.90
5041;DHT22;2539;52.568;13.364;2024-01-30T17:37:40;7.70;99.90
5041;DHT22;2539;52.568;13.364;2024-01-30T17:40:07;7.70;99.90
5041;DHT22;2539;52.568;13.364;2024-01-30T17:42:34;7.70;99.90
5041;DHT22;2539;52.568;13.364;2024-01-30T17:45:02;7.70;99.90
5041;DHT22;2539;52.568;13.364;2024-01-30T17:47:28;7.80;99.90
5041;DHT22;2539;52.568;13.364;2024-01-30T17:49:55;7.70;99.90
5041;DHT22;2539;52.568;13.364;2024-01-30T17:52:22;7.70;99.90
5041;DHT22;2539;52.568;13.364;2024-01-30T17:54:48;7.90;99.90
5041;DHT22;2539;52.568;13.364;2024-01-30T17:57:15;7.70;99.90
5041;DHT22;2539;52.568;13.364;2024-01-30T17:59:43;7.80;99.90
5041;DHT22;2539;52.568;13.364;2024-01-30T18:02:09;7.80;99.90
5041;DHT22;2539;52.568;13.364;2024-01-30T18:04:39;7.80;99.90
5041;DHT22;2539;52.568;13.364;2024-01-30T18:07:05;7.80;99.90
5041;DHT22;2539;52.568;13.364;2024-01-30T18:09:31;7.80;99.90
5041;DHT22;2539;52.568;13.364;2024-01-30T18:11:58;7.80;99.90
5041;DHT22;2539;52.568;13.364;2024-01-30T18:14:24;7.80;99.90
5041;DHT22;2539;52.568;13.364;2024-01-30T18:16:51;7.90;99.90
5041;DHT22;2539;52.568;13.364;2024-01-30T18:19:18;7.80;99.90
5041;DHT22;2539;52.568;13.364;2024-01-30T18:21:45;7.80;99.90
5041;DHT22;2539;52.568;13.364;2024-01-30T18:24:11;7.80;99.90
5041;DHT22;2539;52.568;13.364;2024-01-30T18:26:37;7.80;99.90
5041;DHT22;2539;52.568;13.364;2024-01-30T18:29:04;7.90;99.90
5041;DHT22;2539;52.568;13.364;2024-01-30T18:31:35;7.90;99.90
5041;DHT22;2539;52.568;13.364;2024-01-30T18:34:08;7.80;99.90
5041;DHT22;2539;52.568;13.364;2024-01-30T18:36:33;7.90;99.90
5041;DHT22;2539;52.568;13.364;2024-01-30T18:39:02;8.00;99.90
5041;DHT22;2539;52.568;13.364;2024-01-30T18:41:32;8.00;99.90
5041;DHT22;2539;52.568;13.364;2024-01-30T18:43:58;8.20;99.90
5041;DHT22;2539;52.568;13.364;2024-01-30T18:46:29;8.10;99.90
5041;DHT22;2539;52.568;13.364;2024-01-30T18:48:55;8.10;99.90
5041;DHT22;2539;52.568;13.364;2024-01-30T18:51:22;8.20;99.90
5041;DHT22;2539;52.568;13.364;2024-01-30T18:53:48;8.20;99.90
5041;DHT22;2539;52.568;13.364;2024-01-30T18:56:14;8.20;99.90
5041;DHT22;2539;52.568;13.364;2024-01-30T18:58:44;8.20;99.90
5041;DHT22;2539;52.568;13.364;2024-01-30T19:01:11;8.30;99.90
5041;DHT22;2539;52.568;13.364;2024-01-30T19:03:38;8.30;99.90
5041;DHT22;2539;52.568;13.364;2024-01-30T19:06:04;8.30;99.90
5041;DHT22;2539;52.568;13.364;2024-01-30T19:08:31;8.30;99.90
5041;DHT22;2539;52.568;13.364;2024-01-30T19:10:58;8.30;99.90
5041;DHT22;2539;52.568;13.364;2024-01-30T19:13:24;8.40;99.90
5041;DHT22;2539;52.568;13.364;2024-01-30T19:15:50;8.40;99.90
5041;DHT22;2539;52.568;13.364;2024-01-30T19:18:17;8.40;99.90
5041;DHT22;2539;52.568;13.364;2024-01-30T19:20:43;8.40;99.90
5041;DHT22;2539;52.568;13.364;2024-01-30T19:23:10;8.40;99.90
5041;DHT22;2539;52.568;13.364;2024-01-30T19:25:37;8.40;99.90
5041;DHT22;2539;52.568;13.364;2024-01-30T19:28:03;8.40;99.90
5041;DHT22;2539;52.568;13.364;2024-01-30T19:30:29;8.40;99.90
5041;DHT22;2539;52.568;13.364;2024-01-30T19:32:56;8.50;99.90
5041;DHT22;2539;52.568;13.364;2024-01-30T19:35:22;8.40;99.90
5041;DHT22;2539;52.568;13.364;2024-01-30T19:37:49;8.50;99.90
5041;DHT22;2539;52.568;13.364;2024-01-30T19:40:15;8.50;99.90
5041;DHT22;2539;52.568;13.364;2024-01-30T19:42:41;8.40;99.90
5041;DHT22;2539;52.568;13.364;2024-01-30T19:45:07;8.50;99.90
5041;DHT22;2539;52.568;13.364;2024-01-30T19:47:37;8.50;99.90
5041;DHT22;2539;52.568;13.364;2024-01-30T19:50:03;8.50;99.90
5041;DHT22;2539;52.568;13.364;2024-01-30T19:52:30;8.50;99.90
5041;DHT22;2539;52.568;13.364;2024-01-30T19:54:56;8.50;99.90
5041;DHT22;2539;52.568;13.364;2024-01-30T19:57:22;8.60;99.90
5041;DHT22;2539;52.568;13.364;2024-01-30T19:59:49;8.60;99.90
5041;DHT22;2539;52.568;13.364;2024-01-30T20:02:16;8.60;99.90
5041;DHT22;2539;52.568;13.364;2024-01-30T20:04:45;8.60;99.90
5041;DHT22;2539;52.568;13.364;2024-01-30T20:07:12;8.60;99.90
5041;DHT22;2539;52.568;13.364;2024-01-30T20:09:39;8.50;99.90
5041;DHT22;2539;52.568;13.364;2024-01-30T20:12:06;8.40;99.90
5041;DHT22;2539;52.568;13.364;2024-01-30T20:14:32;8.40;99.90
5041;DHT22;2539;52.568;13.364;2024-01-30T20:17:00;8.30;99.90
5041;DHT22;2539;52.568;13.364;2024-01-30T20:19:29;8.30;99.90
5041;DHT22;2539;52.568;13.364;2024-01-30T20:21:55;8.30;99.90
5041;DHT22;2539;52.568;13.364;2024-01-30T20:24:22;8.30;99.90
5041;DHT22;2539;52.568;13.364;2024-01-30T20:26:50;8.30;99.90
5041;DHT22;2539;52.568;13.364;2024-01-30T20:29:16;8.30;99.90
5041;DHT22;2539;52.568;13.364;2024-01-30T20:31:45;8.40;99.90
5041;DHT22;2539;52.568;13.364;2024-01-30T20:34:11;8.40;99.90
5041;DHT22;2539;52.568;13.364;2024-01-30T20:36:42;8.30;99.90
5041;DHT22;2539;52.568;13.364;2024-01-30T20:39:13;8.30;99.90
5041;DHT22;2539;52.568;13.364;2024-01-30T20:41:42;8.30;99.90
5041;DHT22;2539;52.568;13.364;2024-01-30T20:44:10;8.30;99.90
5041;DHT22;2539;52.568;13.364;2024-01-30T20:46:37;8.30;99.90
5041;DHT22;2539;52.568;13.364;2024-01-30T20:49:03;8.30;99.90
5041;DHT22;2539;52.568;13.364;2024-01-30T20:51:35;8.20;99.90
5041;DHT22;2539;52.568;13.364;2024-01-30T20:54:01;8.20;99.90
5041;DHT22;2539;52.568;13.364;2024-01-30T20:56:30;8.10;99.90
5041;DHT22;2539;52.568;13.364;2024-01-30T20:58:57;8.10;99.90
5041;DHT22;2539;52.568;13.364;2024-01-30T21:01:23;8.00;99.90
5041;DHT22;2539;52.568;13.364;2024-01-30T21:03:49;7.90;99.90
5041;DHT22;2539;52.568;13.364;2024-01-30T21:06:16;7.90;99.90
5041;DHT22;2539;52.568;13.364;2024-01-30T21:08:42;7.80;99.90
5041;DHT22;2539;52.568;13.364;2024-01-30T21:11:09;7.80;99.90
5041;DHT22;2539;52.568;13.364;2024-01-30T21:13:35;7.80;99.90
5041;DHT22;2539;52.568;13.364;2024-01-30T21:16:03;7.80;99.90
5041;DHT22;2539;52.568;13.364;2024-01-30T21:18:29;7.80;99.90
5041;DHT22;2539;52.568;13.364;2024-01-30T21:20:55;7.80;99.90
5041;DHT22;2539;52.568;13.364;2024-01-30T21:23:22;7.90;99.90
5041;DHT22;2539;52.568;13.364;2024-01-30T21:25:48;7.90;99.90
5041;DHT22;2539;52.568;13.364;2024-01-30T21:28:14;8.00;99.90
5041;DHT22;2539;52.568;13.364;2024-01-30T21:30:43;8.00;99.90
5041;DHT22;2539;52.568;13.364;2024-01-30T21:33:09;8.10;99.90
5041;DHT22;2539;52.568;13.364;2024-01-30T21:35:36;8.20;99.90
5041;DHT22;2539;52.568;13.364;2024-01-30T21:38:02;8.10;99.90
5041;DHT22;2539;52.568;13.364;2024-01-30T21:40:30;8.20;99.90
5041;DHT22;2539;52.568;13.364;2024-01-30T21:42:56;8.20;99.90
5041;DHT22;2539;52.568;13.364;2024-01-30T21:45:23;8.20;99.90
5041;DHT22;2539;52.568;13.364;2024-01-30T21:47:51;8.20;99.90
5041;DHT22;2539;52.568;13.364;2024-01-30T21:50:17;8.20;99.90
5041;DHT22;2539;52.568;13.364;2024-01-30T21:52:45;8.30;99.90
5041;DHT22;2539;52.568;13.364;2024-01-30T21:55:11;8.30;99.90
5041;DHT22;2539;52.568;13.364;2024-01-30T21:57:37;8.30;99.90
5041;DHT22;2539;52.568;13.364;2024-01-30T22:00:04;8.30;99.90
5041;DHT22;2539;52.568;13.364;2024-01-30T22:02:33;8.40;99.90
5041;DHT22;2539;52.568;13.364;2024-01-30T22:04:59;8.40;99.90
5041;DHT22;2539;52.568;13.364;2024-01-30T22:07:25;8.30;99.90
5041;DHT22;2539;52.568;13.364;2024-01-30T22:09:52;8.30;99.90
5041;DHT22;2539;52.568;13.364;2024-01-30T22:12:18;8.30;99.90
5041;DHT22;2539;52.568;13.364;2024-01-30T22:14:44;8.40;99.90